Time;durP1;ratioP1;P1;durP2;ratioP2;P2;SDS_P1;SDS_P2;PMS_P1;PMS_P2;Temp;Humidity;BMP_temperature;BMP_pressure;BME280_temperature;BME280_humidity;BME280_pressure;Samples;Min_cycle;Max_cycle;Signal;HPM_P1;HPM_P2
2021/03/22 00:00:53;;;;;;;;;;;;;;;9.57;51.10;101606.34;4990740;28;7095;-79
2021/03/22 00:03:19;;;;;;;;;;;;;;;9.54;51.06;101610.53;4982850;28;8432;-78
2021/03/22 00:05:48;;;;;;;;;;;;;;;9.55;50.82;101615.78;4990012;28;6795;-79
2021/03/22 00:08:13;;;;;;;;;;;;;;;9.51;51.42;101623.38;5003788;28;7574;-79
2021/03/22 00:10:41;;;;;;;;;;;;;;;9.49;50.86;101609.47;4988126;28;7493;-78
2021/03/22 00:13:07;;;;;;;;;;;;;;;9.49;51.12;101609.47;4988098;28;7365;-78
2021/03/22 00:15:33;;;;;;;;;;;;;;;9.48;51.01;101615.47;4998820;28;6828;-79
2021/03/22 00:17:59;;;;;;;;;;;;;;;9.40;51.03;101615.13;4989807;28;7579;-79
2021/03/22 00:20:25;;;;;;;;;;;;;;;9.33;51.32;101605.34;4988576;28;7065;-79
2021/03/22 00:22:51;;;;;;;;;;;;;;;9.39;51.20;101606.47;5010821;28;6799;-78
2021/03/22 00:25:17;;;;;;;;;;;;;;;9.39;50.70;101605.59;5004934;28;7122;-79
2021/03/22 00:27:43;;;;;;;;;;;;;;;9.37;50.83;101610.72;5002462;28;7354;-79
2021/03/22 00:30:09;;;;;;;;;;;;;;;9.35;50.93;101608.88;4986861;28;6799;-78
2021/03/22 00:32:34;;;;;;;;;;;;;;;9.32;50.84;101614.84;4988475;28;6868;-79
2021/03/22 00:35:00;;;;;;;;;;;;;;;9.30;50.78;101606.09;5003891;28;11461;-79
2021/03/22 00:37:26;;;;;;;;;;;;;;;9.25;51.14;101612.81;5017033;28;7281;-77
2021/03/22 00:39:51;;;;;;;;;;;;;;;9.26;50.80;101598.16;5002568;28;7200;-77
2021/03/22 00:42:17;;;;;;;;;;;;;;;9.25;51.48;101606.75;5002730;28;8003;-78
2021/03/22 00:44:42;;;;;;;;;;;;;;;9.23;50.93;101606.69;5016333;28;6788;-77
2021/03/22 00:47:08;;;;;;;;;;;;;;;9.21;50.90;101600.56;5013158;28;6847;-77
2021/03/22 00:49:34;;;;;;;;;;;;;;;9.18;51.13;101597.81;4996795;28;7350;-77
2021/03/22 00:52:00;;;;;;;;;;;;;;;9.17;51.25;101593.44;4990726;28;7904;-77
2021/03/22 00:54:26;;;;;;;;;;;;;;;9.14;50.85;101595.91;5015186;28;7282;-77
2021/03/22 00:56:51;;;;;;;;;;;;;;;9.12;51.18;101594.97;4983460;28;7286;-77
2021/03/22 00:59:17;;;;;;;;;;;;;;;9.10;51.49;101596.59;5014554;28;7540;-77
2021/03/22 01:01:43;;;;;;;;;;;;;;;9.10;51.13;101594.00;5002623;28;7052;-77
2021/03/22 01:04:09;;;;;;;;;;;;;;;9.09;51.21;101600.91;5013169;28;6788;-77
2021/03/22 01:06:34;;;;;;;;;;;;;;;9.06;51.40;101595.59;5014790;28;7278;-77
2021/03/22 01:09:00;;;;;;;;;;;;;;;9.04;51.51;101598.94;5016575;28;6796;-77
2021/03/22 01:11:25;;;;;;;;;;;;;;;9.00;51.12;101584.94;4998193;28;6977;-78
2021/03/22 01:13:55;;;;;;;;;;;;;;;8.99;51.29;101590.94;5017399;28;7051;-77
2021/03/22 01:16:29;;;;;;;;;;;;;;;8.99;51.44;101590.06;5017696;28;7265;-77
2021/03/22 01:18:55;;;;;;;;;;;;;;;8.96;51.37;101587.34;4991014;28;6827;-77
2021/03/22 01:21:26;;;;;;;;;;;;;;;8.95;51.13;101581.28;4990472;28;7373;-77
2021/03/22 01:23:52;;;;;;;;;;;;;;;8.93;51.25;101580.34;4988711;28;8210;-78
2021/03/22 01:26:20;;;;;;;;;;;;;;;8.91;51.58;101578.50;4988777;28;6983;-78
2021/03/22 01:28:46;;;;;;;;;;;;;;;8.88;51.60;101584.44;5007206;28;7293;-77
2021/03/22 01:31:12;;;;;;;;;;;;;;;8.86;51.45;101580.91;4999284;28;7770;-77
2021/03/22 01:33:41;;;;;;;;;;;;;;;8.86;51.54;101580.03;5007979;28;7305;-77
2021/03/22 01:36:10;;;;;;;;;;;;;;;8.83;51.69;101575.59;5000822;28;11313;-77
2021/03/22 01:38:36;;;;;;;;;;;;;;;8.80;51.33;101571.13;5018305;28;11226;-77
2021/03/22 01:41:35;;;;;;;;;;;;;;;8.80;51.89;101565.97;5002854;28;7224;-77
2021/03/22 01:44:04;;;;;;;;;;;;;;;8.79;52.02;101563.31;5015939;28;11459;-77
2021/03/22 01:46:29;;;;;;;;;;;;;;;8.78;51.69;101577.06;5019537;28;7018;-77
2021/03/22 01:48:55;;;;;;;;;;;;;;;8.75;51.57;101564.88;5002448;28;6783;-77
2021/03/22 01:51:20;;;;;;;;;;;;;;;8.72;51.84;101567.34;4997924;28;6991;-77
2021/03/22 01:53:46;;;;;;;;;;;;;;;8.74;51.46;101559.63;5003105;28;7063;-77
2021/03/22 01:56:23;;;;;;;;;;;;;;;8.71;51.88;101565.56;4993926;28;7482;-77
2021/03/22 01:58:49;;;;;;;;;;;;;;;8.70;51.63;101558.63;5004580;28;8607;-77
2021/03/22 02:01:15;;;;;;;;;;;;;;;8.67;51.93;101568.84;5019632;28;7304;-78
2021/03/22 02:03:41;;;;;;;;;;;;;;;8.68;51.81;101564.56;4986803;28;6817;-77
2021/03/22 02:06:07;;;;;;;;;;;;;;;8.67;51.78;101558.50;4988065;28;7108;-77
2021/03/22 02:08:37;;;;;;;;;;;;;;;8.63;52.18;101559.19;5019459;28;7785;-77
2021/03/22 02:11:03;;;;;;;;;;;;;;;8.65;52.03;101556.66;4995016;28;7795;-77
2021/03/22 02:13:30;;;;;;;;;;;;;;;8.65;51.69;101565.31;4995528;28;6800;-78
2021/03/22 02:16:11;;;;;;;;;;;;;;;8.61;52.29;101562.50;5005051;28;6816;-77
2021/03/22 02:18:48;;;;;;;;;;;;;;;8.61;52.02;101558.25;5000336;28;13223;-77
2021/03/22 02:21:34;;;;;;;;;;;;;;;8.58;52.29;101557.19;5007076;28;13298;-77
2021/03/22 02:24:17;;;;;;;;;;;;;;;8.60;52.16;101555.56;5003699;28;7107;-77
2021/03/22 02:27:20;;;;;;;;;;;;;;;8.59;52.16;101562.44;5008918;28;11307;-77
2021/03/22 02:29:48;;;;;;;;;;;;;;;8.58;52.20;101557.19;5017900;28;13962;-77
2021/03/22 02:32:29;;;;;;;;;;;;;;;8.54;52.26;101557.06;5018545;28;6970;-77
2021/03/22 02:35:03;;;;;;;;;;;;;;;8.54;52.16;101549.28;5020287;28;8488;-77
2021/03/22 02:37:42;;;;;;;;;;;;;;;8.54;52.29;101551.00;5005976;28;6835;-77
2021/03/22 02:40:27;;;;;;;;;;;;;;;8.52;52.46;101552.63;4973306;28;11036;-77
2021/03/22 02:42:52;;;;;;;;;;;;;;;8.50;52.39;101557.75;5020317;28;12643;-77
2021/03/22 02:45:30;;;;;;;;;;;;;;;8.51;52.22;101561.22;5004313;28;6787;-78
2021/03/22 02:47:55;;;;;;;;;;;;;;;8.51;52.50;101556.03;5017259;28;7267;-78
2021/03/22 02:50:23;;;;;;;;;;;;;;;8.48;52.43;101556.81;5018393;28;7495;-77
2021/03/22 02:53:17;;;;;;;;;;;;;;;8.49;52.66;101563.75;4976735;28;7159;-77
2021/03/22 02:55:54;;;;;;;;;;;;;;;8.46;52.69;101558.44;5017454;28;11118;-77
2021/03/22 02:58:21;;;;;;;;;;;;;;;8.48;52.47;101564.56;5019108;28;7351;-77
2021/03/22 03:01:11;;;;;;;;;;;;;;;8.48;52.56;101559.38;5011021;28;6801;-77
2021/03/22 03:03:36;;;;;;;;;;;;;;;8.47;52.72;101561.91;5001925;28;11224;-77
2021/03/22 03:06:02;;;;;;;;;;;;;;;8.47;52.87;101559.31;4992235;28;7088;-78
2021/03/22 03:08:34;;;;;;;;;;;;;;;8.42;53.01;101560.81;5019350;28;7496;-77
2021/03/22 03:10:59;;;;;;;;;;;;;;;8.41;52.94;101561.63;4987881;28;6828;-77
2021/03/22 03:13:25;;;;;;;;;;;;;;;8.44;53.03;101566.97;5017278;28;6840;-77
2021/03/22 03:15:51;;;;;;;;;;;;;;;8.42;52.81;101566.91;5020580;28;6871;-77
2021/03/22 03:18:16;;;;;;;;;;;;;;;8.39;52.67;101561.53;5002475;28;11143;-77
2021/03/22 03:20:42;;;;;;;;;;;;;;;8.38;52.76;101566.66;4985840;28;7290;-77
2021/03/22 03:23:07;;;;;;;;;;;;;;;8.38;53.06;101569.25;5015942;28;7244;-77
2021/03/22 03:25:33;;;;;;;;;;;;;;;8.39;52.85;101571.91;5003476;28;8480;-77
2021/03/22 03:27:58;;;;;;;;;;;;;;;8.40;52.91;101570.19;5005475;28;7366;-77
2021/03/22 03:30:29;;;;;;;;;;;;;;;8.39;52.97;101565.84;4990408;28;6879;-77
2021/03/22 03:32:55;;;;;;;;;;;;;;;8.36;53.15;101563.13;5004960;28;7220;-77
2021/03/22 03:35:23;;;;;;;;;;;;;;;8.38;52.88;101574.44;5002239;28;7381;-77
2021/03/22 03:37:48;;;;;;;;;;;;;;;8.37;53.21;101570.06;5016349;28;7550;-77
2021/03/22 03:40:18;;;;;;;;;;;;;;;8.38;53.08;101574.44;5010794;28;7197;-78
2021/03/22 03:42:44;;;;;;;;;;;;;;;8.35;53.14;101579.47;5002966;28;7178;-77
2021/03/22 03:45:10;;;;;;;;;;;;;;;8.35;53.09;101579.47;4997776;28;8384;-77
2021/03/22 03:47:37;;;;;;;;;;;;;;;8.34;53.09;101575.09;4986850;28;8467;-77
2021/03/22 03:50:08;;;;;;;;;;;;;;;8.34;52.96;101569.94;4989145;28;7191;-76
2021/03/22 03:52:34;;;;;;;;;;;;;;;8.33;53.67;101569.00;5015888;28;6828;-77
2021/03/22 03:54:59;;;;;;;;;;;;;;;8.33;53.75;101571.59;5016219;28;7311;-78
2021/03/22 03:57:25;;;;;;;;;;;;;;;8.33;53.22;101569.00;5017415;28;6795;-77
2021/03/22 03:59:50;;;;;;;;;;;;;;;8.33;53.65;101571.59;5019331;28;6847;-77
2021/03/22 04:02:16;;;;;;;;;;;;;;;8.32;53.16;101569.84;4975759;28;8872;-77
2021/03/22 04:04:41;;;;;;;;;;;;;;;8.32;53.51;101568.94;4999526;28;6816;-77
2021/03/22 04:07:07;;;;;;;;;;;;;;;8.30;53.52;101570.59;4997816;28;11309;-77
2021/03/22 04:09:32;;;;;;;;;;;;;;;8.29;53.95;101580.03;5001070;28;8482;-77
2021/03/22 04:11:58;;;;;;;;;;;;;;;8.30;53.65;101578.34;5014207;28;7071;-76
2021/03/22 04:14:25;;;;;;;;;;;;;;;8.29;53.83;101577.47;5000220;28;8931;-77
2021/03/22 04:16:51;;;;;;;;;;;;;;;8.22;54.24;101584.06;4986280;28;7423;-77
2021/03/22 04:19:17;;;;;;;;;;;;;;;8.27;53.75;101591.16;4997601;28;7197;-77
2021/03/22 04:21:43;;;;;;;;;;;;;;;8.27;54.01;101594.63;4984091;28;7143;-77
2021/03/22 04:24:08;;;;;;;;;;;;;;;8.26;53.82;101594.56;4996642;28;7309;-77
2021/03/22 04:26:34;;;;;;;;;;;;;;;8.24;53.74;101587.59;4992684;28;8492;-77
2021/03/22 04:29:00;;;;;;;;;;;;;;;8.26;54.12;101591.97;5014609;28;8393;-77
2021/03/22 04:31:26;;;;;;;;;;;;;;;8.24;54.32;101591.91;4989895;28;7886;-77
2021/03/22 04:33:52;;;;;;;;;;;;;;;8.18;54.56;101584.72;5012325;28;6860;-77
2021/03/22 04:36:23;;;;;;;;;;;;;;;8.21;54.13;101597.81;4985700;28;7254;-77
2021/03/22 04:38:49;;;;;;;;;;;;;;;8.22;53.80;101591.84;4999343;28;8643;-77
2021/03/22 04:41:14;;;;;;;;;;;;;;;8.22;54.56;101593.53;4996517;28;7394;-77
2021/03/22 04:43:40;;;;;;;;;;;;;;;8.21;54.30;101592.66;5004425;28;7562;-77
2021/03/22 04:46:07;;;;;;;;;;;;;;;8.20;54.08;101582.19;5013563;28;7074;-77
2021/03/22 04:48:32;;;;;;;;;;;;;;;8.19;54.32;101583.91;5000013;28;6820;-77
2021/03/22 04:50:58;;;;;;;;;;;;;;;8.07;54.99;101592.81;5001651;28;6799;-77
2021/03/22 04:53:23;;;;;;;;;;;;;;;8.14;54.71;101593.16;4999149;28;6775;-77
2021/03/22 04:55:49;;;;;;;;;;;;;;;8.16;54.62;101596.69;5003082;28;8391;-77
2021/03/22 04:58:14;;;;;;;;;;;;;;;8.16;54.66;101593.22;5015302;28;7162;-77
2021/03/22 05:00:44;;;;;;;;;;;;;;;8.16;54.35;101599.28;5018466;28;7123;-78
2021/03/22 05:03:19;;;;;;;;;;;;;;;8.14;55.04;101597.44;5003005;28;11325;-78
2021/03/22 05:05:45;;;;;;;;;;;;;;;8.14;54.44;101605.22;5018237;28;12619;-77
2021/03/22 05:08:11;;;;;;;;;;;;;;;8.14;54.79;101600.91;4990158;28;6804;-78
2021/03/22 05:10:40;;;;;;;;;;;;;;;8.12;54.63;101607.72;4997628;28;6831;-76
2021/03/22 05:13:06;;;;;;;;;;;;;;;8.11;54.55;101600.78;4984120;28;6813;-77
2021/03/22 05:15:31;;;;;;;;;;;;;;;8.14;54.98;101610.38;4985413;28;6875;-77
2021/03/22 05:17:57;;;;;;;;;;;;;;;8.10;54.85;101611.06;4985182;28;7213;-79
2021/03/22 05:20:28;;;;;;;;;;;;;;;8.10;55.29;101604.19;5000470;28;7391;-79
2021/03/22 05:22:53;;;;;;;;;;;;;;;8.10;54.92;101614.53;5002862;28;8147;-79
2021/03/22 05:25:20;;;;;;;;;;;;;;;8.13;55.11;101609.50;4996959;28;8476;-75
2021/03/22 05:27:45;;;;;;;;;;;;;;;8.13;55.11;101612.09;5006477;28;7476;-76
2021/03/22 05:30:11;;;;;;;;;;;;;;;8.15;55.09;101609.56;5012426;28;7584;-79
2021/03/22 05:32:37;;;;;;;;;;;;;;;8.14;54.80;101606.09;5021406;28;7245;-79
2021/03/22 05:35:07;;;;;;;;;;;;;;;8.17;55.08;101607.94;5009560;28;6794;-79
2021/03/22 05:37:33;;;;;;;;;;;;;;;8.17;54.98;101607.94;4994794;28;8449;-80
2021/03/22 05:39:58;;;;;;;;;;;;;;;8.18;54.96;101608.00;5024130;28;7211;-79
2021/03/22 05:42:47;;;;;;;;;;;;;;;8.22;55.00;101615.13;5012918;28;7249;-79
2021/03/22 05:45:30;;;;;;;;;;;;;;;8.23;54.84;101621.19;4993058;28;11163;-79
2021/03/22 05:48:11;;;;;;;;;;;;;;;8.28;54.54;101618.78;5017336;28;11466;-78
2021/03/22 05:50:41;;;;;;;;;;;;;;;8.28;54.38;101616.22;5014208;28;7067;-78
2021/03/22 05:53:18;;;;;;;;;;;;;;;8.24;54.71;101621.25;4990237;28;7368;-78
2021/03/22 05:55:51;;;;;;;;;;;;;;;8.26;55.15;101615.25;5004236;28;11031;-78
2021/03/22 05:58:31;;;;;;;;;;;;;;;8.27;54.98;101614.44;5008374;28;11269;-80
2021/03/22 06:01:11;;;;;;;;;;;;;;;8.31;55.21;101621.53;5016832;28;6832;-80
2021/03/22 06:03:40;;;;;;;;;;;;;;;8.30;54.94;101625.81;5010245;28;7055;-79
2021/03/22 06:06:10;;;;;;;;;;;;;;;8.30;55.04;101620.63;4992807;28;7219;-79
2021/03/22 06:08:40;;;;;;;;;;;;;;;8.31;55.17;101626.69;4990165;28;6966;-80
2021/03/22 06:11:39;;;;;;;;;;;;;;;8.33;54.87;101625.06;4996294;28;7393;-80
2021/03/22 06:14:17;;;;;;;;;;;;;;;8.35;54.77;101633.81;5026781;28;10961;-80
2021/03/22 06:16:46;;;;;;;;;;;;;;;8.35;54.82;101633.81;5022187;28;12543;-80
2021/03/22 06:19:13;;;;;;;;;;;;;;;8.33;55.45;101633.72;5007902;28;11074;-80
2021/03/22 06:21:40;;;;;;;;;;;;;;;8.37;54.92;101642.53;4993986;28;9474;-80
2021/03/22 06:24:23;;;;;;;;;;;;;;;8.37;55.08;101642.53;5009113;28;7453;-79
2021/03/22 06:26:56;;;;;;;;;;;;;;;8.39;55.45;101636.59;5006983;28;11723;-79
2021/03/22 06:29:29;;;;;;;;;;;;;;;8.41;55.23;101636.69;4999908;28;8121;-79
2021/03/22 06:31:59;;;;;;;;;;;;;;;8.46;55.04;101632.63;5011469;28;7194;-79
2021/03/22 06:34:49;;;;;;;;;;;;;;;8.45;55.45;101648.97;4991454;28;6923;-80
2021/03/22 06:37:16;;;;;;;;;;;;;;;8.51;55.12;101644.94;5004152;28;11437;-80
2021/03/22 06:39:42;;;;;;;;;;;;;;;8.57;54.91;101636.56;5010767;28;11705;-79
2021/03/22 06:42:22;;;;;;;;;;;;;;;8.61;54.94;101646.28;5011001;28;7443;-79
2021/03/22 06:44:47;;;;;;;;;;;;;;;8.67;54.77;101640.47;5021585;28;10994;-79
2021/03/22 06:47:13;;;;;;;;;;;;;;;8.80;54.84;101646.25;5020140;28;8655;-79
2021/03/22 06:49:40;;;;;;;;;;;;;;;8.90;53.89;101641.50;5021984;28;7146;-79
2021/03/22 06:52:18;;;;;;;;;;;;;;;8.98;53.78;101638.41;4997191;28;7655;-79
2021/03/22 06:54:55;;;;;;;;;;;;;;;9.00;54.22;101643.66;5002984;28;12970;-79
2021/03/22 06:57:24;;;;;;;;;;;;;;;9.10;53.95;101640.66;4990229;28;11178;-79
2021/03/22 07:00:14;;;;;;;;;;;;;;;9.20;53.38;101645.41;5023464;28;7135;-79
2021/03/22 07:02:43;;;;;;;;;;;;;;;9.35;53.44;101646.06;4979157;28;8549;-79
2021/03/22 07:05:23;;;;;;;;;;;;;;;9.42;52.83;101648.13;5006188;28;6993;-79
2021/03/22 07:08:09;;;;;;;;;;;;;;;9.40;52.91;101647.13;5017068;28;11082;-76
2021/03/22 07:10:39;;;;;;;;;;;;;;;9.47;52.76;101642.22;5014956;28;7097;-77
2021/03/22 07:13:08;;;;;;;;;;;;;;;9.53;52.72;101645.94;4988109;28;6979;-78
2021/03/22 07:15:34;;;;;;;;;;;;;;;9.56;52.76;101645.19;4989409;28;6799;-78
2021/03/22 07:18:00;;;;;;;;;;;;;;;9.64;52.75;101646.41;5000483;28;8235;-78
2021/03/22 07:20:26;;;;;;;;;;;;;;;9.68;52.95;101649.19;4999022;28;6895;-77
2021/03/22 07:22:51;;;;;;;;;;;;;;;9.81;52.31;101644.47;5001906;28;7268;-78
2021/03/22 07:25:32;;;;;;;;;;;;;;;9.85;52.43;101649.00;4988062;28;7508;-78
2021/03/22 07:28:07;;;;;;;;;;;;;;;9.86;52.22;101655.94;4991241;28;11296;-79
2021/03/22 07:30:40;;;;;;;;;;;;;;;9.86;52.36;101651.66;4989247;28;6884;-77
2021/03/22 07:33:11;;;;;;;;;;;;;;;9.94;51.69;101658.00;5000633;28;7051;-78
2021/03/22 07:35:54;;;;;;;;;;;;;;;10.02;52.13;101656.63;5018098;28;7707;-80
2021/03/22 07:38:38;;;;;;;;;;;;;;;10.05;51.90;101663.66;5013721;28;10915;-78
2021/03/22 07:41:45;;;;;;;;;;;;;;;10.19;51.75;101664.16;5016889;28;7026;-77
2021/03/22 07:44:35;;;;;;;;;;;;;;;10.28;51.48;101667.19;5016881;28;12375;-76
2021/03/22 07:47:20;;;;;;;;;;;;;;;10.29;51.60;101675.03;5007141;28;10990;-77
2021/03/22 07:50:03;;;;;;;;;;;;;;;10.34;51.28;101677.78;5017646;28;11024;-77
2021/03/22 07:52:30;;;;;;;;;;;;;;;10.42;51.37;101671.22;5015140;28;11230;-78
2021/03/22 07:55:15;;;;;;;;;;;;;;;10.53;51.04;101669.88;5016961;28;7094;-79
2021/03/22 07:58:02;;;;;;;;;;;;;;;10.71;50.90;101668.81;5015832;28;7142;-78
2021/03/22 08:00:40;;;;;;;;;;;;;;;10.74;50.89;101664.59;5015459;28;12494;-77
2021/03/22 08:03:14;;;;;;;;;;;;;;;10.66;50.93;101671.25;4985748;28;8598;-77
2021/03/22 08:06:01;;;;;;;;;;;;;;;10.65;51.15;101665.16;4986676;28;7120;-77
2021/03/22 08:08:26;;;;;;;;;;;;;;;10.76;50.76;101682.84;5014829;28;11465;-79
2021/03/22 08:11:14;;;;;;;;;;;;;;;10.89;50.31;101675.56;5013872;28;6800;-77
2021/03/22 08:13:43;;;;;;;;;;;;;;;10.91;50.06;101676.50;4989996;28;8417;-77
2021/03/22 08:16:38;;;;;;;;;;;;;;;10.85;50.60;101683.22;5015839;28;6964;-78
2021/03/22 08:19:17;;;;;;;;;;;;;;;10.84;50.59;101686.63;5011456;28;11276;-78
2021/03/22 08:21:49;;;;;;;;;;;;;;;10.85;50.78;101693.59;4997845;28;6994;-77
2021/03/22 08:24:26;;;;;;;;;;;;;;;10.90;50.87;101692.06;4999237;28;9556;-77
2021/03/22 08:26:57;;;;;;;;;;;;;;;11.10;49.89;101697.97;4985972;28;12381;-77
2021/03/22 08:29:27;;;;;;;;;;;;;;;11.33;49.23;101696.19;5000828;28;7002;-77
2021/03/22 08:32:05;;;;;;;;;;;;;;;11.37;49.46;101698.94;4999940;28;6820;-79
2021/03/22 08:34:42;;;;;;;;;;;;;;;11.36;49.63;101704.97;5013505;28;6824;-78
2021/03/22 08:37:27;;;;;;;;;;;;;;;11.31;49.73;101705.66;5000423;28;7290;-77
2021/03/22 08:39:59;;;;;;;;;;;;;;;11.37;49.49;101706.75;4989187;28;11151;-77
2021/03/22 08:42:52;;;;;;;;;;;;;;;11.33;49.13;101709.19;5002001;28;6930;-77
2021/03/22 08:45:39;;;;;;;;;;;;;;;11.44;49.68;101707.88;5010538;28;12884;-79
2021/03/22 08:48:09;;;;;;;;;;;;;;;11.69;49.10;101715.69;5021303;28;11749;-77
2021/03/22 08:50:35;;;;;;;;;;;;;;;11.87;48.48;101723.25;5015523;28;7473;-77
2021/03/22 08:53:10;;;;;;;;;;;;;;;11.97;47.78;101717.50;5002227;28;6814;-77
2021/03/22 08:55:43;;;;;;;;;;;;;;;12.03;47.86;101722.06;5015304;28;6796;-77
2021/03/22 08:58:23;;;;;;;;;;;;;;;12.00;48.05;101724.53;5012200;28;6904;-77
2021/03/22 09:00:50;;;;;;;;;;;;;;;12.01;48.11;101728.91;5008335;28;11032;-77
2021/03/22 09:03:20;;;;;;;;;;;;;;;12.05;48.36;101733.41;4988169;28;6792;-77
2021/03/22 09:06:04;;;;;;;;;;;;;;;12.16;48.13;101725.09;5015541;28;6824;-78
2021/03/22 09:08:31;;;;;;;;;;;;;;;12.14;47.69;101729.34;5015373;28;11162;-78
2021/03/22 09:11:12;;;;;;;;;;;;;;;12.10;47.71;101721.41;5001825;28;6840;-77
2021/03/22 09:13:38;;;;;;;;;;;;;;;12.08;48.13;101725.69;4986421;28;7570;-77
2021/03/22 09:16:33;;;;;;;;;;;;;;;12.10;47.85;101724.88;5002823;28;6952;-76
2021/03/22 09:19:04;;;;;;;;;;;;;;;12.19;47.90;101725.19;5002635;28;10963;-79
2021/03/22 09:21:30;;;;;;;;;;;;;;;12.23;47.82;101723.59;5013398;28;7413;-78
2021/03/22 09:23:55;;;;;;;;;;;;;;;12.21;48.15;101737.34;5012862;28;7672;-77
2021/03/22 09:27:07;;;;;;;;;;;;;;;12.12;47.78;101737.97;5011097;28;6926;-77
2021/03/22 09:29:41;;;;;;;;;;;;;;;12.17;47.57;101736.38;4970590;28;12944;-78
2021/03/22 09:32:29;;;;;;;;;;;;;;;12.21;47.82;101740.84;5006079;28;7391;-77
2021/03/22 09:34:58;;;;;;;;;;;;;;;12.32;47.63;101744.69;5014092;28;11177;-77
2021/03/22 09:37:45;;;;;;;;;;;;;;;12.43;47.75;101743.31;4998347;28;7210;-77
2021/03/22 09:40:23;;;;;;;;;;;;;;;12.49;47.34;101740.91;4985573;28;7305;-80
2021/03/22 09:43:11;;;;;;;;;;;;;;;12.44;46.99;101739.88;5002100;28;12814;-77
2021/03/22 09:45:36;;;;;;;;;;;;;;;12.38;47.57;101736.19;5018650;28;12737;-78
2021/03/22 09:48:16;;;;;;;;;;;;;;;12.31;47.39;101740.31;5002142;28;8543;-78
2021/03/22 09:50:42;;;;;;;;;;;;;;;12.23;47.72;101741.81;5008731;28;7240;-79
2021/03/22 09:53:18;;;;;;;;;;;;;;;12.21;47.79;101742.56;5004874;28;7303;-78
2021/03/22 09:55:49;;;;;;;;;;;;;;;12.22;47.52;101740.03;5020397;28;6819;-79
2021/03/22 09:58:20;;;;;;;;;;;;;;;12.18;48.24;101748.56;5015155;28;7651;-78
2021/03/22 10:00:50;;;;;;;;;;;;;;;12.20;47.79;101749.50;5014640;28;8566;-78
2021/03/22 10:03:28;;;;;;;;;;;;;;;12.18;47.76;101748.56;5000381;28;7040;-78
2021/03/22 10:05:56;;;;;;;;;;;;;;;12.22;48.24;101755.66;4990775;28;11338;-77
2021/03/22 10:08:27;;;;;;;;;;;;;;;12.25;47.93;101754.88;5016729;28;7145;-78
2021/03/22 10:10:57;;;;;;;;;;;;;;;12.24;47.81;101758.31;4991053;28;11064;-77
2021/03/22 10:13:40;;;;;;;;;;;;;;;12.41;47.35;101752.81;4997302;28;6874;-78
2021/03/22 10:16:17;;;;;;;;;;;;;;;12.79;46.96;101746.16;4991588;28;11123;-78
2021/03/22 10:18:58;;;;;;;;;;;;;;;13.02;46.19;101743.38;5017623;28;7339;-77
2021/03/22 10:21:24;;;;;;;;;;;;;;;12.99;46.00;101740.66;5004090;28;11211;-78
2021/03/22 10:24:15;;;;;;;;;;;;;;;13.03;46.39;101747.75;5018787;28;7214;-78
2021/03/22 10:26:42;;;;;;;;;;;;;;;13.05;46.17;101748.66;4987270;28;12876;-78
2021/03/22 10:29:20;;;;;;;;;;;;;;;13.20;46.31;101754.34;5019461;28;6931;-77
2021/03/22 10:32:05;;;;;;;;;;;;;;;13.39;45.50;101756.63;5022918;28;6975;-77
2021/03/22 10:34:39;;;;;;;;;;;;;;;13.47;45.59;101756.84;4993502;28;13041;-78
2021/03/22 10:37:19;;;;;;;;;;;;;;;13.61;44.93;101763.31;5016726;28;8430;-78
2021/03/22 10:39:52;;;;;;;;;;;;;;;13.75;44.96;101762.81;4988039;28;7268;-78
2021/03/22 10:42:27;;;;;;;;;;;;;;;13.93;44.12;101760.66;4995157;28;7524;-77
2021/03/22 10:44:55;;;;;;;;;;;;;;;14.13;44.37;101766.41;5015456;28;11202;-80
2021/03/22 10:47:21;;;;;;;;;;;;;;;14.30;43.94;101760.75;4986317;28;13832;-79
2021/03/22 10:49:48;;;;;;;;;;;;;;;14.47;43.43;101762.91;4991653;28;7076;-78
2021/03/22 10:52:30;;;;;;;;;;;;;;;14.56;43.30;101755.28;5016040;28;6941;-78
2021/03/22 10:54:56;;;;;;;;;;;;;;;14.46;43.38;101746.34;4982752;28;11520;-78
2021/03/22 10:57:36;;;;;;;;;;;;;;;14.37;43.53;101753.03;4993820;28;7338;-78
2021/03/22 11:00:23;;;;;;;;;;;;;;;14.25;43.58;101762.38;4987411;28;11439;-78
2021/03/22 11:02:49;;;;;;;;;;;;;;;14.10;44.04;101751.53;5014163;28;6996;-78
2021/03/22 11:05:16;;;;;;;;;;;;;;;14.07;44.13;101756.69;5015488;28;7229;-78
2021/03/22 11:07:41;;;;;;;;;;;;;;;14.05;44.43;101753.16;4986886;28;7206;-79
2021/03/22 11:10:07;;;;;;;;;;;;;;;14.14;44.14;101760.31;4992185;28;7505;-78
2021/03/22 11:12:32;;;;;;;;;;;;;;;14.19;44.22;101758.69;5013743;28;6807;-77
2021/03/22 11:15:06;;;;;;;;;;;;;;;14.27;43.76;101763.28;4975199;28;8326;-78
2021/03/22 11:17:32;;;;;;;;;;;;;;;14.49;43.46;101754.25;4997280;28;8064;-79
2021/03/22 11:19:59;;;;;;;;;;;;;;;14.90;42.79;101754.28;5015162;28;7026;-79
2021/03/22 11:22:35;;;;;;;;;;;;;;;15.06;42.47;101759.00;4985681;28;7317;-77
2021/03/22 11:25:07;;;;;;;;;;;;;;;15.12;42.04;101766.09;4993703;28;11118;-78
2021/03/22 11:27:52;;;;;;;;;;;;;;;15.23;42.09;101759.34;4995820;28;7198;-77
2021/03/22 11:30:18;;;;;;;;;;;;;;;15.30;41.58;101762.97;5016989;28;6824;-78
2021/03/22 11:32:47;;;;;;;;;;;;;;;15.25;41.91;101759.38;4991735;28;7103;-77
2021/03/22 11:35:27;;;;;;;;;;;;;;;15.20;41.97;101762.78;4985974;28;7006;-77
2021/03/22 11:37:53;;;;;;;;;;;;;;;15.16;42.12;101755.72;5019719;28;11482;-79
2021/03/22 11:40:21;;;;;;;;;;;;;;;15.15;42.18;101759.19;5003210;28;8724;-77
2021/03/22 11:43:23;;;;;;;;;;;;;;;15.12;42.19;101763.47;4988040;28;6984;-77
2021/03/22 11:45:49;;;;;;;;;;;;;;;15.08;42.12;101757.31;5015024;28;11223;-78
2021/03/22 11:48:20;;;;;;;;;;;;;;;15.12;41.88;101759.13;5004684;28;7064;-77
2021/03/22 11:50:59;;;;;;;;;;;;;;;15.10;42.20;101767.81;5024295;28;6824;-77
2021/03/22 11:53:25;;;;;;;;;;;;;;;15.04;42.11;101760.72;4990022;28;11558;-76
2021/03/22 11:56:17;;;;;;;;;;;;;;;14.98;42.52;101773.63;5000059;28;8419;-79
2021/03/22 11:58:43;;;;;;;;;;;;;;;14.91;42.98;101761.28;5011642;28;11176;-78
2021/03/22 12:01:13;;;;;;;;;;;;;;;14.86;42.56;101769.03;5016176;28;7257;-77
2021/03/22 12:03:38;;;;;;;;;;;;;;;14.83;42.73;101762.88;5011728;28;6815;-76
2021/03/22 12:06:05;;;;;;;;;;;;;;;14.81;42.80;101757.56;4998301;28;8383;-77
2021/03/22 12:08:34;;;;;;;;;;;;;;;14.81;43.23;101769.78;4997787;28;8156;-76
2021/03/22 12:11:00;;;;;;;;;;;;;;;14.77;42.89;101760.97;5014189;28;8004;-77
2021/03/22 12:13:26;;;;;;;;;;;;;;;14.74;42.89;101763.53;4998750;28;7444;-77
2021/03/22 12:15:52;;;;;;;;;;;;;;;14.74;43.38;101770.50;4986888;28;6795;-76
2021/03/22 12:18:22;;;;;;;;;;;;;;;14.71;43.23;101766.09;4988451;28;6787;-76
2021/03/22 12:20:48;;;;;;;;;;;;;;;14.71;43.14;101765.19;4985915;28;7310;-75
2021/03/22 12:23:14;;;;;;;;;;;;;;;14.71;42.89;101766.09;5007062;28;7286;-74
2021/03/22 12:25:39;;;;;;;;;;;;;;;14.76;43.56;101767.06;5016049;28;8541;-76
2021/03/22 12:28:05;;;;;;;;;;;;;;;14.82;42.93;101758.50;5012151;28;7262;-76
2021/03/22 12:30:31;;;;;;;;;;;;;;;14.99;42.45;101761.44;5015446;28;7146;-76
2021/03/22 12:32:57;;;;;;;;;;;;;;;15.18;42.60;101753.13;5014496;28;7501;-77
2021/03/22 12:35:31;;;;;;;;;;;;;;;15.21;41.92;101755.81;5016651;28;7723;-76
2021/03/22 12:37:57;;;;;;;;;;;;;;;15.24;42.25;101762.84;4996509;28;12912;-76
2021/03/22 12:40:23;;;;;;;;;;;;;;;15.26;42.21;101764.66;4984571;28;7364;-75
2021/03/22 12:42:49;;;;;;;;;;;;;;;15.20;42.38;101759.28;4985906;28;7398;-76
2021/03/22 12:45:28;;;;;;;;;;;;;;;15.09;42.20;101758.19;4995626;28;7344;-76
2021/03/22 12:47:54;;;;;;;;;;;;;;;15.01;42.17;101762.34;4999669;28;6824;-76
2021/03/22 12:50:30;;;;;;;;;;;;;;;15.06;42.73;101755.50;4997043;28;7225;-76
2021/03/22 12:52:56;;;;;;;;;;;;;;;15.08;42.39;101751.19;4983538;28;11040;-76
2021/03/22 12:55:22;;;;;;;;;;;;;;;15.13;42.09;101762.63;5015179;28;7739;-76
2021/03/22 12:57:49;;;;;;;;;;;;;;;15.17;42.01;101762.72;5006351;28;6804;-76
2021/03/22 13:00:16;;;;;;;;;;;;;;;15.19;42.42;101761.00;5014584;28;7763;-76
2021/03/22 13:02:44;;;;;;;;;;;;;;;15.17;42.30;101762.72;5000162;28;7186;-76
2021/03/22 13:05:24;;;;;;;;;;;;;;;15.21;42.09;101766.25;5012534;28;7387;-76
2021/03/22 13:07:49;;;;;;;;;;;;;;;15.23;42.08;101761.97;4984814;28;7578;-76
2021/03/22 13:10:19;;;;;;;;;;;;;;;15.24;42.22;101763.75;4995708;28;7237;-76
2021/03/22 13:12:44;;;;;;;;;;;;;;;15.26;41.74;101759.41;4983738;28;7873;-76